Time;durP1;ratioP1;P1;durP2;ratioP2;P2;SDS_P1;SDS_P2;PMS_P1;PMS_P2;Temp;Humidity;BMP_temperature;BMP_pressure;BME280_temperature;BME280_humidity;BME280_pressure;Samples;Min_cycle;Max_cycle;Signal;HPM_P1;HPM_P2
2022/12/28 00:02:15;;;;;;;29.02;13.63;;;;;;;8.76;100.00;101931.75;5052885;28;20073;-75
2022/12/28 00:04:43;;;;;;;25.70;13.73;;;;;;;8.83;100.00;101925.13;5052181;28;20487;-75
2022/12/28 00:07:11;;;;;;;29.63;14.52;;;;;;;8.88;100.00;101918.97;5052245;28;20510;-74
2022/12/28 00:09:38;;;;;;;26.05;13.63;;;;;;;8.76;100.00;101923.56;5050654;28;20072;-75
2022/12/28 00:12:06;;;;;;;27.85;13.23;;;;;;;8.90;100.00;101916.00;5072001;28;20049;-75
2022/12/28 00:14:34;;;;;;;24.95;14.10;;;;;;;8.91;100.00;101923.13;5071930;28;20044;-75
2022/12/28 00:17:02;;;;;;;27.95;14.15;;;;;;;8.89;100.00;101915.16;5071349;28;20052;-75
2022/12/28 00:19:30;;;;;;;25.83;13.35;;;;;;;8.72;100.00;101918.59;5071693;28;20056;-75
2022/12/28 00:21:57;;;;;;;24.58;13.63;;;;;;;8.77;100.00;101923.34;5071770;28;20487;-74
2022/12/28 00:24:25;;;;;;;27.65;13.55;;;;;;;8.76;100.00;101913.50;5071825;28;20052;-75
2022/12/28 00:26:55;;;;;;;25.15;13.82;;;;;;;8.80;100.00;101922.03;5071894;28;20372;-74
2022/12/28 00:29:23;;;;;;;24.67;12.32;;;;;;;8.91;100.00;101912.19;5071577;28;20052;-75
2022/12/28 00:31:51;;;;;;;25.60;13.05;;;;;;;8.74;100.00;101921.06;5071829;28;20044;-75
2022/12/28 00:34:23;;;;;;;23.55;13.20;;;;;;;8.75;100.00;101925.47;5071744;28;20064;-75
2022/12/28 00:36:52;;;;;;;20.90;11.52;;;;;;;8.69;100.00;101920.94;5066819;28;20060;-74
2022/12/28 00:39:41;;;;;;;21.45;11.38;;;;;;;8.55;100.00;101920.34;5050041;28;20514;-75
2022/12/28 00:42:09;;;;;;;19.70;11.40;;;;;;;8.50;100.00;101923.72;5050111;28;20407;-75
2022/12/28 00:44:38;;;;;;;20.73;11.82;;;;;;;8.40;100.00;101929.72;5051917;28;20045;-75
2022/12/28 00:47:06;;;;;;;23.85;11.27;;;;;;;8.28;100.00;101926.13;5051451;28;20041;-75
2022/12/28 00:49:34;;;;;;;22.67;11.32;;;;;;;8.20;100.00;101921.81;5051412;28;20049;-74
2022/12/28 00:52:02;;;;;;;22.77;11.48;;;;;;;8.09;100.00;101919.88;5050765;28;20056;-74
2022/12/28 00:54:29;;;;;;;19.42;11.60;;;;;;;8.00;100.00;101914.75;5055395;28;20503;-74
2022/12/28 00:56:57;;;;;;;18.30;10.70;;;;;;;7.89;100.00;101915.53;5055262;28;20048;-74
2022/12/28 00:59:25;;;;;;;20.55;10.32;;;;;;;7.92;100.00;101923.25;5054966;28;20060;-74
2022/12/28 01:01:53;;;;;;;22.15;11.15;;;;;;;7.91;100.00;101927.03;5053608;28;20376;-74
2022/12/28 01:04:21;;;;;;;18.63;10.45;;;;;;;7.94;100.00;101911.03;5055006;28;20128;-74
2022/12/28 01:06:49;;;;;;;20.33;9.95;;;;;;;7.89;100.00;101912.78;5054945;28;20056;-74
2022/12/28 01:09:17;;;;;;;18.33;10.20;;;;;;;7.69;100.00;101913.03;5053712;28;20041;-74
2022/12/28 01:11:45;;;;;;;16.55;9.70;;;;;;;7.58;100.00;101920.09;5053233;28;20052;-74
2022/12/28 01:14:14;;;;;;;20.15;10.23;;;;;;;7.43;100.00;101915.81;5054928;28;20071;-74
2022/12/28 01:16:42;;;;;;;19.88;9.63;;;;;;;7.42;100.00;101918.78;5055039;28;20048;-74
2022/12/28 01:19:17;;;;;;;16.70;9.20;;;;;;;7.31;100.00;101912.19;5055031;28;20049;-74
2022/12/28 01:21:47;;;;;;;18.08;10.07;;;;;;;7.28;100.00;101923.53;5054656;28;20053;-74
2022/12/28 01:24:16;;;;;;;20.30;8.65;;;;;;;7.23;100.00;101914.13;5055029;28;20052;-74
2022/12/28 01:26:44;;;;;;;16.33;9.13;;;;;;;7.29;100.00;101917.03;5053000;28;20045;-74
2022/12/28 01:29:12;;;;;;;17.10;10.00;;;;;;;7.24;100.00;101917.72;5054994;28;20399;-74
2022/12/28 01:31:39;;;;;;;13.85;8.40;;;;;;;7.15;100.00;101927.19;5054827;28;20053;-74
2022/12/28 01:34:07;;;;;;;15.43;9.02;;;;;;;7.03;100.00;101933.38;5053186;28;20060;-74
2022/12/28 01:36:35;;;;;;;17.63;9.43;;;;;;;7.03;100.00;101929.84;5054983;28;20041;-74
2022/12/28 01:39:05;;;;;;;15.55;9.05;;;;;;;7.01;100.00;101934.66;5054454;28;20116;-74
2022/12/28 01:41:38;;;;;;;14.55;8.70;;;;;;;7.00;100.00;101925.66;5054475;28;20056;-74
2022/12/28 01:44:06;;;;;;;16.77;8.90;;;;;;;6.96;100.00;101933.44;5051331;28;20052;-74
2022/12/28 01:46:41;;;;;;;14.70;8.35;;;;;;;6.95;100.00;101939.91;5053117;28;20511;-74
2022/12/28 01:49:09;;;;;;;14.95;8.95;;;;;;;6.87;100.00;101934.75;5054111;28;20052;-74
2022/12/28 01:51:50;;;;;;;17.30;8.52;;;;;;;6.80;100.00;101934.00;5054260;28;20033;-74
2022/12/28 01:54:22;;;;;;;13.55;7.78;;;;;;;6.78;100.00;101936.09;5054185;28;20057;-74
2022/12/28 01:56:51;;;;;;;14.60;8.70;;;;;;;6.73;100.00;101934.03;5053994;28;20053;-74
2022/12/28 01:59:21;;;;;;;16.48;8.30;;;;;;;6.80;100.00;101925.81;5052197;28;20053;-74
2022/12/28 02:01:51;;;;;;;12.57;7.88;;;;;;;6.78;100.00;101927.91;5054032;28;20049;-74
2022/12/28 02:04:19;;;;;;;15.80;8.35;;;;;;;6.89;100.00;101929.94;5052488;28;20041;-74
2022/12/28 02:06:47;;;;;;;13.10;7.45;;;;;;;6.95;100.00;101931.75;5052140;28;20049;-74
2022/12/28 02:09:42;;;;;;;16.38;8.57;;;;;;;7.01;100.00;101931.94;5053930;28;20056;-74
2022/12/28 02:12:31;;;;;;;14.95;8.05;;;;;;;7.09;100.00;101918.06;5053840;28;20429;-74
2022/12/28 02:15:00;;;;;;;17.00;8.40;;;;;;;7.22;100.00;101920.66;5052467;28;20061;-74
2022/12/28 02:17:29;;;;;;;19.00;9.45;;;;;;;7.33;100.00;101918.25;5053678;28;20040;-74
2022/12/28 02:19:57;;;;;;;13.90;8.20;;;;;;;7.24;100.00;101918.53;5053811;28;20068;-74
2022/12/28 02:22:46;;;;;;;15.85;7.95;;;;;;;7.36;100.00;101915.91;5053826;28;20064;-74
2022/12/28 02:25:37;;;;;;;15.60;8.10;;;;;;;7.37;100.00;101916.72;5054221;28;20056;-74
2022/12/28 02:28:37;;;;;;;16.02;8.75;;;;;;;7.53;100.00;101921.59;5053162;28;20056;-75
2022/12/28 02:31:13;;;;;;;15.73;7.95;;;;;;;7.52;100.00;101914.47;5051877;28;20045;-75
2022/12/28 02:33:47;;;;;;;14.65;9.00;;;;;;;7.55;100.00;101920.53;5053475;28;20048;-74
2022/12/28 02:36:21;;;;;;;15.65;8.13;;;;;;;7.58;100.00;101911.91;5053532;28;20053;-74
2022/12/28 02:38:56;;;;;;;13.27;8.07;;;;;;;7.53;100.00;101915.31;5053391;28;20044;-74
2022/12/28 02:41:25;;;;;;;13.65;7.72;;;;;;;7.48;100.00;101910.53;5052020;28;20045;-74
2022/12/28 02:43:54;;;;;;;10.63;7.45;;;;;;;7.46;100.00;101918.09;5053198;28;20480;-74
2022/12/28 02:52:28;;;;;;;16.75;7.45;;;;;;;7.47;100.00;101916.19;5085414;28;20506;-74
2022/12/28 02:58:10;;;;;;;18.08;8.45;;;;;;;7.36;100.00;101896.00;5085216;28;20048;-74
2022/12/28 03:00:41;;;;;;;15.15;7.35;;;;;;;7.37;100.00;101900.38;5051041;28;20056;-74
2022/12/28 03:03:37;;;;;;;13.95;7.68;;;;;;;7.23;100.00;101892.34;5053149;28;20049;-74
2022/12/28 03:09:12;;;;;;;11.85;6.95;;;;;;;7.29;100.00;101900.69;5084483;28;20052;-74
2022/12/28 03:11:53;;;;;;;13.70;7.80;;;;;;;7.13;100.00;101897.47;5035188;28;20399;-74
2022/12/28 03:14:33;;;;;;;12.70;7.63;;;;;;;7.28;100.00;101894.41;5052826;28;20044;-74
2022/12/28 03:31:23;;;;;;;12.45;7.65;;;;;;;7.07;100.00;101854.81;5052394;28;20412;-74
2022/12/28 03:34:05;;;;;;;11.18;6.95;;;;;;;7.04;100.00;101847.13;5051201;28;20041;-74
2022/12/28 03:37:03;;;;;;;11.07;7.07;;;;;;;6.94;100.00;101859.34;5050720;28;20526;-74
2022/12/28 03:40:20;;;;;;;12.57;7.43;;;;;;;6.92;100.00;101863.34;5050963;28;20061;-74
2022/12/28 03:45:55;;;;;;;12.63;6.75;;;;;;;7.01;100.00;101863.88;4993515;28;20076;-74
2022/12/28 03:48:24;;;;;;;15.38;6.57;;;;;;;6.98;100.00;101876.91;5044464;28;20063;-74
2022/12/28 03:50:53;;;;;;;13.57;6.75;;;;;;;6.86;100.00;101874.06;5052366;28;20415;-74
2022/12/28 03:53:28;;;;;;;10.13;6.40;;;;;;;6.91;100.00;101883.44;5050625;28;20403;-74
2022/12/28 03:56:25;;;;;;;11.48;6.45;;;;;;;6.85;100.00;101887.91;5050922;28;20036;-74
2022/12/28 03:58:56;;;;;;;11.60;6.50;;;;;;;6.99;100.00;101894.03;5048884;28;20057;-74
2022/12/28 04:01:31;;;;;;;11.63;7.95;;;;;;;7.03;100.00;101895.25;5050322;28;20060;-74
2022/12/28 04:03:59;;;;;;;11.40;7.15;;;;;;;7.08;100.00;101892.72;5050336;28;20052;-74
2022/12/28 04:06:27;;;;;;;12.60;7.43;;;;;;;7.16;100.00;101905.22;5050336;28;20400;-74
2022/12/28 04:08:56;;;;;;;18.45;8.05;;;;;;;7.19;100.00;101903.94;5050228;28;20056;-74
2022/12/28 04:11:27;;;;;;;12.07;6.18;;;;;;;7.23;100.00;101895.06;5050793;28;20480;-74
2022/12/28 04:13:57;;;;;;;10.20;6.05;;;;;;;7.29;100.00;101901.53;5050279;28;20045;-74
2022/12/28 04:16:27;;;;;;;11.50;7.35;;;;;;;7.29;100.00;101889.78;5034128;28;20041;-74
2022/12/28 04:18:55;;;;;;;10.48;6.20;;;;;;;7.32;100.00;101886.59;5050246;28;20049;-74
2022/12/28 04:21:23;;;;;;;11.05;6.28;;;;;;;7.33;100.00;101882.84;5050246;28;20063;-74
2022/12/28 04:23:53;;;;;;;11.23;5.90;;;;;;;7.37;100.00;101878.59;5050278;28;20076;-74
2022/12/28 04:26:22;;;;;;;11.48;6.45;;;;;;;7.42;100.00;101876.03;5051122;28;20407;-75
2022/12/28 04:28:52;;;;;;;11.57;6.22;;;;;;;7.40;100.00;101869.97;5054648;28;20056;-74
2022/12/28 04:31:46;;;;;;;9.93;6.60;;;;;;;7.60;100.00;101866.19;5052602;28;20056;-74
2022/12/28 04:34:18;;;;;;;11.77;6.20;;;;;;;7.68;100.00;101862.31;5054370;28;20503;-74
2022/12/28 04:36:53;;;;;;;11.38;6.35;;;;;;;7.66;100.00;101857.09;5054311;28;20491;-74
2022/12/28 04:39:22;;;;;;;11.65;7.03;;;;;;;7.68;100.00;101852.28;5054258;28;20049;-74
2022/12/28 04:41:50;;;;;;;15.30;7.68;;;;;;;7.62;100.00;101850.47;5055730;28;20057;-74
2022/12/28 04:44:18;;;;;;;11.60;6.15;;;;;;;7.51;100.00;101847.44;5055776;28;20403;-74
2022/12/28 04:46:46;;;;;;;12.95;6.18;;;;;;;7.63;100.00;101858.38;5055410;28;20059;-74
2022/12/28 04:49:13;;;;;;;11.85;6.05;;;;;;;7.49;100.00;101856.91;5055299;28;20054;-74
2022/12/28 04:51:41;;;;;;;11.60;6.03;;;;;;;7.45;100.00;101853.78;5055631;28;20049;-74
2022/12/28 04:54:13;;;;;;;11.82;6.43;;;;;;;7.51;100.00;101854.75;5053639;28;20045;-74
2022/12/28 04:56:40;;;;;;;10.93;6.00;;;;;;;7.54;100.00;101862.50;5054005;28;20045;-75
2022/12/28 04:59:08;;;;;;;8.35;5.55;;;;;;;7.51;100.00;101868.38;5055120;28;20045;-75
2022/12/28 05:01:36;;;;;;;14.07;6.47;;;;;;;7.48;100.00;101869.66;5055294;28;20403;-74
2022/12/28 05:04:04;;;;;;;8.65;6.20;;;;;;;7.53;100.00;101867.09;5055001;28;20526;-74
2022/12/28 05:06:32;;;;;;;10.77;6.65;;;;;;;7.33;100.00;101858.34;5055053;28;20064;-74
2022/12/28 05:09:00;;;;;;;10.70;6.55;;;;;;;7.42;100.00;101864.31;5054846;28;20068;-74
2022/12/28 05:11:28;;;;;;;10.05;6.00;;;;;;;7.34;100.00;101862.72;5055160;28;20127;-74
2022/12/28 05:13:56;;;;;;;13.27;6.57;;;;;;;7.39;100.00;101866.41;5054776;28;20049;-74
2022/12/28 05:16:26;;;;;;;11.95;6.10;;;;;;;7.44;100.00;101865.75;5054845;28;20045;-74
2022/12/28 05:18:55;;;;;;;11.57;7.13;;;;;;;7.50;100.00;101858.56;5055100;28;20049;-75
2022/12/28 05:21:26;;;;;;;12.25;6.32;;;;;;;7.54;100.00;101867.94;5054958;28;20052;-74
2022/12/28 05:23:54;;;;;;;14.07;6.88;;;;;;;7.50;100.00;101850.38;5054740;28;20072;-75
2022/12/28 05:26:25;;;;;;;9.88;6.22;;;;;;;7.42;100.00;101848.78;5054948;28;20044;-75
2022/12/28 05:28:54;;;;;;;12.38;7.05;;;;;;;7.35;100.00;101843.44;5054851;28;20404;-74
2022/12/28 05:31:22;;;;;;;10.13;6.20;;;;;;;7.24;100.00;101831.38;5054856;28;20048;-75
2022/12/28 05:33:51;;;;;;;11.73;6.75;;;;;;;7.18;100.00;101829.56;5054838;28;20428;-74
2022/12/28 05:36:21;;;;;;;11.07;6.68;;;;;;;7.21;100.00;101844.63;5054672;28;20048;-74
2022/12/28 05:38:51;;;;;;;9.90;6.05;;;;;;;7.07;100.00;101835.75;5054147;28;20398;-74
2022/12/28 05:41:25;;;;;;;14.05;7.10;;;;;;;7.04;100.00;101836.22;5054454;28;20049;-74
2022/12/28 05:43:54;;;;;;;10.35;6.30;;;;;;;7.03;100.00;101846.28;5054402;28;20053;-74
2022/12/28 05:46:25;;;;;;;9.82;6.47;;;;;;;7.10;100.00;101854.38;5054498;28;20045;-74
2022/12/28 05:48:54;;;;;;;13.00;6.90;;;;;;;7.13;100.00;101852.03;5054274;28;20056;-74
2022/12/28 05:51:32;;;;;;;10.90;6.60;;;;;;;7.18;100.00;101861.44;5054274;28;20041;-74
2022/12/28 05:54:03;;;;;;;13.73;6.70;;;;;;;7.21;100.00;101864.53;5054269;28;20138;-74
2022/12/28 05:56:31;;;;;;;12.40;7.05;;;;;;;7.26;100.00;101858.41;5054124;28;20060;-74
2022/12/28 05:59:01;;;;;;;14.38;7.18;;;;;;;7.33;100.00;101866.50;5054128;28;20404;-74
2022/12/28 06:01:32;;;;;;;11.88;7.18;;;;;;;7.39;100.00;101868.31;5053990;28;20056;-74
2022/12/28 06:04:05;;;;;;;11.85;7.35;;;;;;;7.47;100.00;101868.00;5054073;28;20928;-74
2022/12/28 06:06:34;;;;;;;11.45;6.32;;;;;;;7.49;100.00;101865.88;5053733;28;20052;-74
2022/12/28 06:09:03;;;;;;;12.45;6.65;;;;;;;7.51;100.00;101874.69;5053608;28;20033;-74
2022/12/28 06:11:31;;;;;;;13.48;7.28;;;;;;;7.46;100.00;101876.41;5053927;28;20048;-74
2022/12/28 06:13:59;;;;;;;12.10;6.30;;;;;;;7.55;100.00;101876.94;5053909;28;20049;-75
2022/12/28 06:16:30;;;;;;;9.85;6.13;;;;;;;7.63;100.00;101880.19;5052387;28;20048;-74
2022/12/28 06:18:58;;;;;;;11.93;6.45;;;;;;;7.59;100.00;101880.88;5053575;28;20041;-74
2022/12/28 06:21:30;;;;;;;12.70;7.03;;;;;;;7.55;100.00;101874.22;5053608;28;20053;-74
2022/12/28 06:24:00;;;;;;;13.75;6.43;;;;;;;7.58;100.00;101874.59;5052209;28;20049;-74
2022/12/28 06:26:29;;;;;;;9.90;6.40;;;;;;;7.63;100.00;101879.38;5053608;28;20060;-74
2022/12/28 06:29:00;;;;;;;13.65;6.45;;;;;;;7.58;100.00;101882.75;5053314;28;20551;-75
2022/12/28 06:31:32;;;;;;;10.70;6.55;;;;;;;7.55;100.00;101885.94;5052771;28;20052;-74
2022/12/28 06:34:02;;;;;;;13.27;6.97;;;;;;;7.60;100.00;101888.81;5053348;28;20060;-74
2022/12/28 06:36:32;;;;;;;11.77;7.65;;;;;;;7.60;100.00;101882.53;5053546;28;20049;-75
2022/12/28 06:39:02;;;;;;;13.00;7.15;;;;;;;7.57;100.00;101896.63;5053269;28;20053;-74
2022/12/28 06:41:30;;;;;;;10.55;6.85;;;;;;;7.55;100.00;101891.41;5053021;28;20049;-74
2022/12/28 06:43:59;;;;;;;16.63;7.65;;;;;;;7.66;100.00;101898.81;5053004;28;20060;-74
2022/12/28 06:46:29;;;;;;;12.95;7.80;;;;;;;7.64;100.00;101895.47;5052452;28;20057;-74
2022/12/28 06:48:57;;;;;;;14.05;7.82;;;;;;;7.68;100.00;101890.41;5053096;28;20049;-74
2022/12/28 06:51:30;;;;;;;14.40;7.50;;;;;;;7.73;100.00;101895.19;5052738;28;20079;-74
2022/12/28 06:53:58;;;;;;;17.43;8.10;;;;;;;7.68;100.00;101887.69;5052950;28;20084;-74
2022/12/28 06:56:29;;;;;;;15.35;7.22;;;;;;;7.75;100.00;101899.34;5052227;28;20420;-75
2022/12/28 06:58:58;;;;;;;17.88;7.78;;;;;;;7.82;100.00;101896.50;5052679;28;20377;-74
2022/12/28 07:01:35;;;;;;;13.07;7.30;;;;;;;7.66;100.00;101898.81;5053061;28;20057;-74
2022/12/28 07:04:05;;;;;;;15.60;8.00;;;;;;;7.76;99.69;101901.00;5052641;28;20083;-74
2022/12/28 07:06:36;;;;;;;13.85;7.13;;;;;;;7.78;100.00;101901.59;5053165;28;20049;-74
2022/12/28 07:09:08;;;;;;;14.48;7.80;;;;;;;7.74;100.00;101900.41;5052568;28;20068;-74
2022/12/28 07:11:36;;;;;;;20.33;7.85;;;;;;;7.79;100.00;101903.25;5051373;28;20049;-74
2022/12/28 07:14:04;;;;;;;15.45;7.38;;;;;;;7.85;100.00;101906.13;5053066;28;20388;-74
2022/12/28 07:16:32;;;;;;;13.80;7.88;;;;;;;7.84;100.00;101905.31;5052567;28;20045;-74
2022/12/28 07:18:59;;;;;;;12.55;6.25;;;;;;;7.93;100.00;101911.28;5052708;28;20404;-75
2022/12/28 07:21:30;;;;;;;8.52;6.57;;;;;;;7.93;100.00;101903.91;5052640;28;20053;-75
2022/12/28 07:23:58;;;;;;;12.10;7.07;;;;;;;7.96;100.00;101912.72;5052294;28;20049;-75
2022/12/28 07:26:28;;;;;;;12.65;7.13;;;;;;;8.01;100.00;101905.50;5052599;28;20487;-74
2022/12/28 07:28:58;;;;;;;14.65;7.72;;;;;;;8.11;99.35;101912.31;5052439;28;20049;-74
2022/12/28 07:31:30;;;;;;;13.27;7.47;;;;;;;8.14;99.04;101909.13;5052361;28;20057;-74
2022/12/28 07:33:59;;;;;;;12.10;6.22;;;;;;;8.24;96.61;101914.84;5052334;28;20111;-75
2022/12/28 07:36:29;;;;;;;12.18;6.50;;;;;;;8.32;97.22;101914.53;5052454;28;20055;-78
2022/12/28 07:38:57;;;;;;;10.40;6.53;;;;;;;8.40;95.60;101907.09;5052419;28;20407;-78
2022/12/28 07:41:28;;;;;;;8.68;6.45;;;;;;;8.55;94.00;101902.06;5052389;28;20049;-78
2022/12/28 07:43:59;;;;;;;9.65;7.18;;;;;;;8.67;94.13;101895.78;5052007;28;20057;-78
2022/12/28 07:46:29;;;;;;;13.15;6.95;;;;;;;8.59;92.64;101888.78;5052178;28;20072;-78
2022/12/28 07:48:58;;;;;;;10.95;5.97;;;;;;;8.63;93.04;101895.44;5051887;28;20404;-78
2022/12/28 07:51:28;;;;;;;9.93;6.10;;;;;;;8.54;92.97;101891.38;5052591;28;20055;-78
2022/12/28 07:53:57;;;;;;;10.25;6.28;;;;;;;8.51;92.66;101898.09;5052538;28;20049;-77
2022/12/28 07:56:27;;;;;;;10.25;5.82;;;;;;;8.42;93.13;101900.31;5051899;28;20049;-77
2022/12/28 07:59:00;;;;;;;9.93;6.43;;;;;;;8.59;92.28;101908.72;5052017;28;20060;-77
2022/12/28 08:01:31;;;;;;;8.90;6.20;;;;;;;8.51;93.09;101900.81;5051684;28;20053;-77
2022/12/28 08:04:02;;;;;;;5.97;5.03;;;;;;;8.70;91.48;101904.34;5052147;28;20057;-77
2022/12/28 08:06:33;;;;;;;8.68;5.97;;;;;;;8.64;89.93;101908.00;5051950;28;20056;-77
2022/12/28 08:09:04;;;;;;;11.10;6.43;;;;;;;8.71;89.90;101906.00;5049987;28;20057;-77
2022/12/28 08:11:35;;;;;;;10.02;5.85;;;;;;;8.63;90.44;101911.81;5051765;28;20395;-77
2022/12/28 08:14:04;;;;;;;11.20;6.18;;;;;;;8.80;90.73;101917.41;5051983;28;20432;-77
2022/12/28 08:16:35;;;;;;;9.20;5.70;;;;;;;8.82;89.43;101917.19;5051964;28;20496;-77
2022/12/28 08:19:04;;;;;;;8.25;5.57;;;;;;;8.89;91.63;101915.16;5051672;28;20052;-77
2022/12/28 08:21:43;;;;;;;11.25;5.85;;;;;;;8.87;89.90;101914.56;5051715;28;20037;-77
2022/12/28 08:24:17;;;;;;;10.10;5.93;;;;;;;8.72;89.83;101915.03;5051883;28;20056;-77
2022/12/28 08:26:47;;;;;;;13.07;6.47;;;;;;;8.82;88.76;101920.75;5051959;28;20049;-77
2022/12/28 08:29:18;;;;;;;8.45;5.43;;;;;;;8.93;89.58;101908.16;5051692;28;20060;-77
2022/12/28 08:31:47;;;;;;;9.25;6.00;;;;;;;9.24;90.17;101916.25;5052182;28;20064;-76
2022/12/28 08:34:25;;;;;;;8.95;5.95;;;;;;;9.47;89.10;101912.66;5051446;28;20396;-76
2022/12/28 08:36:54;;;;;;;11.20;6.60;;;;;;;9.58;86.80;101919.19;5051774;28;20053;-76
2022/12/28 08:39:22;;;;;;;9.32;5.50;;;;;;;9.67;87.11;101911.44;5049889;28;20045;-77
2022/12/28 08:41:50;;;;;;;9.43;6.32;;;;;;;9.95;87.07;101921.63;5051817;28;20053;-76
2022/12/28 08:44:18;;;;;;;9.80;5.97;;;;;;;9.96;85.22;101916.97;5051641;28;20057;-76
2022/12/28 08:46:46;;;;;;;9.38;6.43;;;;;;;9.89;85.09;101928.06;5051642;28;20079;-77
2022/12/28 08:49:14;;;;;;;11.25;6.47;;;;;;;9.86;86.92;101917.59;5051814;28;20049;-78
2022/12/28 08:51:42;;;;;;;8.55;6.15;;;;;;;10.03;86.88;101916.81;5051432;28;20045;-78
2022/12/28 08:54:12;;;;;;;10.82;6.47;;;;;;;10.35;86.99;101921.78;5050181;28;20496;-77
2022/12/28 08:56:42;;;;;;;14.90;7.55;;;;;;;10.37;84.90;101930.63;5051316;28;20052;-78
2022/12/28 08:59:14;;;;;;;11.60;7.43;;;;;;;10.30;84.88;101927.16;5051812;28;20053;-78
2022/12/28 09:01:42;;;;;;;14.77;7.80;;;;;;;10.31;84.56;101921.47;5051561;28;20049;-77
2022/12/28 09:04:16;;;;;;;11.98;7.50;;;;;;;10.31;84.64;101923.38;5051510;28;20049;-74
2022/12/28 09:06:44;;;;;;;14.93;8.07;;;;;;;10.32;83.68;101919.56;5051199;28;20060;-76
2022/12/28 09:09:14;;;;;;;12.65;7.38;;;;;;;10.26;83.74;101920.53;5051081;28;20053;-74
2022/12/28 09:11:43;;;;;;;13.38;7.35;;;;;;;10.33;84.96;101918.50;5051678;28;20052;-76
2022/12/28 09:14:13;;;;;;;14.65;8.10;;;;;;;10.54;84.61;101924.34;5053532;28;20064;-75
2022/12/28 09:16:49;;;;;;;17.77;7.60;;;;;;;10.70;80.76;101920.81;5054668;28;20049;-74
2022/12/28 09:19:17;;;;;;;13.55;7.82;;;;;;;11.00;81.85;101919.66;5054676;28;20053;-74
2022/12/28 09:21:47;;;;;;;11.80;7.32;;;;;;;11.19;81.03;101922.13;5054873;28;20049;-75
2022/12/28 09:24:16;;;;;;;14.77;7.60;;;;;;;11.36;82.72;101927.59;5054528;28;20061;-75
2022/12/28 09:26:43;;;;;;;11.52;6.68;;;;;;;11.50;82.64;101928.06;5054615;28;20052;-73
2022/12/28 09:29:12;;;;;;;12.23;7.25;;;;;;;11.59;82.66;101925.69;5054680;28;20495;-66
2022/12/28 09:31:41;;;;;;;13.65;7.30;;;;;;;11.68;81.79;101928.81;5053390;28;20051;-66
2022/12/28 09:34:12;;;;;;;10.52;7.35;;;;;;;11.56;82.27;101921.56;5053222;28;20072;-65
2022/12/28 09:37:00;;;;;;;15.23;7.20;;;;;;;11.61;82.82;101929.03;5054360;28;20041;-66
2022/12/28 09:39:28;;;;;;;18.10;8.55;;;;;;;11.66;82.42;101920.88;5054115;28;20060;-66
2022/12/28 09:42:16;;;;;;;14.50;8.35;;;;;;;11.73;81.63;101926.16;5054720;28;20045;-66
2022/12/28 09:44:47;;;;;;;13.73;8.43;;;;;;;11.78;80.32;101919.91;5052895;28;20052;-66
2022/12/28 09:47:24;;;;;;;13.10;7.68;;;;;;;11.94;82.10;101921.75;5054468;28;20045;-65
2022/12/28 09:50:13;;;;;;;15.20;8.48;;;;;;;11.92;80.15;101923.91;5052609;28;20049;-65
2022/12/28 09:52:51;;;;;;;13.02;8.40;;;;;;;12.14;81.56;101919.53;5052732;28;20632;-67
2022/12/28 09:55:19;;;;;;;13.38;8.10;;;;;;;12.17;81.62;101921.78;5053972;28;20057;-66
2022/12/28 09:57:50;;;;;;;15.65;9.00;;;;;;;12.03;80.90;101924.03;5053778;28;20045;-65
2022/12/28 10:00:41;;;;;;;18.73;9.65;;;;;;;12.15;80.83;101927.50;5053812;28;20048;-65
2022/12/28 10:03:38;;;;;;;18.67;9.82;;;;;;;12.12;80.40;101921.72;5054075;28;20044;-65
2022/12/28 10:06:15;;;;;;;17.67;9.82;;;;;;;12.27;81.91;101921.84;5052663;28;20411;-65
2022/12/28 10:08:47;;;;;;;19.50;10.18;;;;;;;12.03;80.78;101918.56;5054007;28;20052;-65
2022/12/28 10:11:27;;;;;;;16.55;9.82;;;;;;;12.11;81.63;101925.53;5053759;28;20049;-66
2022/12/28 10:13:58;;;;;;;15.10;8.85;;;;;;;12.22;81.71;101921.81;5053739;28;20048;-67
2022/12/28 10:16:31;;;;;;;19.02;9.88;;;;;;;12.32;79.71;101927.41;5053883;28;20053;-65
2022/12/28 10:18:59;;;;;;;16.47;9.70;;;;;;;12.42;79.82;101920.38;5053634;28;20053;-64
2022/12/28 10:21:31;;;;;;;14.15;8.18;;;;;;;12.46;79.08;101929.75;5053885;28;20299;-64
2022/12/28 10:24:05;;;;;;;16.95;9.27;;;;;;;12.47;78.41;101939.66;5053543;28;20048;-65
2022/12/28 10:26:54;;;;;;;18.02;8.90;;;;;;;12.50;78.82;101922.63;5053413;28;20052;-64
2022/12/28 10:29:23;;;;;;;14.95;8.70;;;;;;;12.52;78.58;101931.47;5053216;28;20049;-64
2022/12/28 10:31:57;;;;;;;15.55;8.60;;;;;;;12.63;79.57;101921.38;5053267;28;20063;-64
2022/12/28 10:34:27;;;;;;;14.98;8.20;;;;;;;12.63;77.59;101919.47;5052069;28;20040;-64
2022/12/28 10:37:15;;;;;;;18.48;8.88;;;;;;;12.60;76.41;101921.91;5053239;28;20053;-64
2022/12/28 10:39:55;;;;;;;18.88;8.27;;;;;;;12.59;76.41;101918.34;5053175;28;20053;-64
2022/12/28 10:42:39;;;;;;;16.42;8.13;;;;;;;12.71;76.41;101926.41;5053715;28;20045;-64
2022/12/28 10:45:18;;;;;;;18.00;8.43;;;;;;;12.89;76.17;101914.19;5053173;28;20160;-64
2022/12/28 10:47:49;;;;;;;18.10;8.40;;;;;;;12.94;75.83;101910.66;5051886;28;20303;-64
2022/12/28 10:50:39;;;;;;;18.25;9.65;;;;;;;12.83;77.02;101904.25;5053254;28;20049;-64
2022/12/28 10:53:27;;;;;;;21.67;10.63;;;;;;;12.63;78.99;101911.22;5052840;28;20056;-64
2022/12/28 10:56:12;;;;;;;19.33;9.10;;;;;;;12.42;78.29;101904.72;5052891;28;20488;-64
2022/12/28 10:58:42;;;;;;;20.23;9.40;;;;;;;12.61;76.88;101901.63;5051275;28;20484;-65
2022/12/28 11:01:13;;;;;;;17.25;9.38;;;;;;;12.73;78.74;101895.94;5051591;28;20124;-65
2022/12/28 11:04:02;;;;;;;16.42;9.90;;;;;;;12.85;79.60;101896.56;5053314;28;20056;-65
2022/12/28 11:06:33;;;;;;;18.70;9.98;;;;;;;13.00;80.63;101886.81;5053257;28;20403;-64
2022/12/28 11:09:01;;;;;;;19.77;10.32;;;;;;;12.96;78.64;101882.91;5052445;28;20045;-64
2022/12/28 11:11:29;;;;;;;20.77;9.10;;;;;;;13.08;77.97;101878.03;5052844;28;20053;-64
2022/12/28 11:14:29;;;;;;;17.60;10.15;;;;;;;13.31;77.29;101882.28;5052403;28;20053;-64
2022/12/28 11:17:13;;;;;;;18.00;8.85;;;;;;;13.26;77.19;101881.44;5053029;28;20487;-64
2022/12/28 11:19:41;;;;;;;17.30;9.70;;;;;;;12.92;76.00;101863.38;5052830;28;20056;-64
2022/12/28 11:22:16;;;;;;;16.38;8.93;;;;;;;12.79;76.19;101875.66;5052596;28;20045;-64
2022/12/28 11:24:44;;;;;;;17.77;9.02;;;;;;;12.45;78.78;101875.91;5052338;28;20048;-64
2022/12/28 11:27:17;;;;;;;15.32;8.70;;;;;;;12.54;77.03;101868.03;5052515;28;20052;-64
2022/12/28 11:29:49;;;;;;;19.98;9.82;;;;;;;12.72;76.25;101870.38;5052124;28;20057;-64
2022/12/28 11:32:23;;;;;;;17.50;9.90;;;;;;;13.01;76.37;101866.47;5052132;28;20483;-65
2022/12/28 11:34:53;;;;;;;;;;;;;;;13.07;76.46;101862.66;5052924;28;20049;-64
2022/12/28 11:37:21;;;;;;;18.55;9.23;;;;;;;13.54;74.68;101857.44;5051562;28;20283;-64
2022/12/28 11:39:51;;;;;;;18.02;10.07;;;;;;;13.79;73.62;101847.63;5052132;28;20059;-64
2022/12/28 11:42:33;;;;;;;22.60;10.60;;;;;;;14.17;71.04;101850.97;5052034;28;20484;-64
2022/12/28 11:45:34;;;;;;;19.85;10.43;;;;;;;13.95;70.83;101854.81;5052310;28;20060;-64
2022/12/28 11:48:37;;;;;;;17.00;10.05;;;;;;;14.35;71.92;101844.13;5051951;28;20037;-65
2022/12/28 11:51:20;;;;;;;17.70;9.07;;;;;;;14.66;68.78;101832.25;5052434;28;20403;-65
2022/12/28 11:53:53;;;;;;;18.17;9.43;;;;;;;14.89;68.02;101830.91;5051577;28;20056;-65
2022/12/28 11:56:24;;;;;;;16.63;9.40;;;;;;;14.10;70.12;101825.66;5050645;28;20527;-65
2022/12/28 11:58:57;;;;;;;21.05;9.82;;;;;;;13.74;71.35;101825.59;5052060;28;20511;-65
2022/12/28 12:01:28;;;;;;;20.80;9.77;;;;;;;14.03;71.59;101825.91;5052145;28;20064;-65
2022/12/28 12:03:56;;;;;;;18.60;9.32;;;;;;;13.95;71.44;101824.53;5052383;28;20052;-65
2022/12/28 12:06:42;;;;;;;17.13;9.63;;;;;;;14.16;71.30;101818.22;5051966;28;20416;-65
2022/12/28 12:09:37;;;;;;;17.60;9.48;;;;;;;14.15;71.98;101816.56;5052321;28;20377;-65
2022/12/28 12:12:14;;;;;;;20.77;9.75;;;;;;;14.37;69.16;101799.78;5052476;28;20068;-65